sensor_id;sensor_type;location;lat;lon;timestamp;noise_LAeq;noise_LA_min;noise_LA_max;noise_LA01;noise_LA95
52872;Laerm;40124;52.198;9.902;2023-04-03T00:01:15;43.18;40.89;46.07;;
52872;Laerm;40124;52.198;9.902;2023-04-03T00:03:41;62.93;39.58;82.48;;
52872;Laerm;40124;52.198;9.902;2023-04-03T00:06:07;43.41;39.81;55.77;;
52872;Laerm;40124;52.198;9.902;2023-04-03T00:08:33;43.46;40.13;51.19;;
52872;Laerm;40124;52.198;9.902;2023-04-03T00:10:59;43.17;39.46;45.36;;
52872;Laerm;40124;52.198;9.902;2023-04-03T00:13:24;43.05;39.81;49.28;;
52872;Laerm;40124;52.198;9.902;2023-04-03T00:15:50;58.55;40.23;78.19;;
52872;Laerm;40124;52.198;9.902;2023-04-03T00:18:15;58.42;39.46;77.86;;
52872;Laerm;40124;52.198;9.902;2023-04-03T00:20:40;50.21;38.18;72.64;;
52872;Laerm;40124;52.198;9.902;2023-04-03T00:23:05;63.80;40.23;83.82;;
52872;Laerm;40124;52.198;9.902;2023-04-03T00:25:30;42.90;39.70;54.06;;
52872;Laerm;40124;52.198;9.902;2023-04-03T00:27:56;58.01;40.62;78.96;;
52872;Laerm;40124;52.198;9.902;2023-04-03T00:30:21;43.66;39.34;56.41;;
52872;Laerm;40124;52.198;9.902;2023-04-03T00:32:50;42.22;39.46;44.11;;
52872;Laerm;40124;52.198;9.902;2023-04-03T00:35:15;42.34;39.21;53.47;;
52872;Laerm;40124;52.198;9.902;2023-04-03T00:37:41;42.51;40.03;45.11;;
52872;Laerm;40124;52.198;9.902;2023-04-03T00:40:07;42.14;39.46;44.07;;
52872;Laerm;40124;52.198;9.902;2023-04-03T00:42:33;42.37;39.46;52.70;;
52872;Laerm;40124;52.198;9.902;2023-04-03T00:47:25;56.80;40.89;77.84;;
52872;Laerm;40124;52.198;9.902;2023-04-03T00:49:51;43.23;40.98;46.87;;
52872;Laerm;40124;52.198;9.902;2023-04-03T00:52:17;42.92;40.80;53.87;;
52872;Laerm;40124;52.198;9.902;2023-04-03T00:54:44;54.89;40.62;75.56;;
52872;Laerm;40124;52.198;9.902;2023-04-03T00:57:10;60.38;40.13;81.44;;
52872;Laerm;40124;52.198;9.902;2023-04-03T00:59:38;58.70;40.53;79.32;;
52872;Laerm;40124;52.198;9.902;2023-04-03T01:02:05;42.96;40.23;46.20;;
52872;Laerm;40124;52.198;9.902;2023-04-03T01:04:32;42.97;40.80;52.02;;
52872;Laerm;40124;52.198;9.902;2023-04-03T01:06:58;43.69;41.82;45.48;;
52872;Laerm;40124;52.198;9.902;2023-04-03T01:09:26;43.39;41.30;52.72;;
52872;Laerm;40124;52.198;9.902;2023-04-03T01:11:51;42.99;40.53;48.36;;
52872;Laerm;40124;52.198;9.902;2023-04-03T01:14:16;57.56;40.89;77.85;;
52872;Laerm;40124;52.198;9.902;2023-04-03T01:16:41;42.98;40.62;54.94;;
52872;Laerm;40124;52.198;9.902;2023-04-03T01:19:07;42.82;40.71;44.73;;
52872;Laerm;40124;52.198;9.902;2023-04-03T01:24:12;61.62;41.30;80.73;;
52872;Laerm;40124;52.198;9.902;2023-04-03T01:26:40;43.22;40.80;52.73;;
52872;Laerm;40124;52.198;9.902;2023-04-03T01:29:06;43.39;41.53;44.97;;
52872;Laerm;40124;52.198;9.902;2023-04-03T01:31:41;43.47;41.61;45.01;;
52872;Laerm;40124;52.198;9.902;2023-04-03T01:34:07;61.00;41.06;82.10;;
52872;Laerm;40124;52.198;9.902;2023-04-03T01:36:33;59.64;41.46;81.50;;
52872;Laerm;40124;52.198;9.902;2023-04-03T01:38:59;43.79;41.14;53.23;;
52872;Laerm;40124;52.198;9.902;2023-04-03T01:41:24;61.38;41.53;80.76;;
52872;Laerm;40124;52.198;9.902;2023-04-03T01:43:50;60.29;41.06;82.15;;
52872;Laerm;40124;52.198;9.902;2023-04-03T01:46:18;43.53;41.30;47.48;;
52872;Laerm;40124;52.198;9.902;2023-04-03T01:48:44;67.51;41.53;87.57;;
52872;Laerm;40124;52.198;9.902;2023-04-03T01:51:09;44.55;42.41;50.41;;
52872;Laerm;40124;52.198;9.902;2023-04-03T01:53:35;61.05;41.61;80.21;;
52872;Laerm;40124;52.198;9.902;2023-04-03T01:56:00;44.00;41.61;53.75;;
52872;Laerm;40124;52.198;9.902;2023-04-03T01:58:25;64.15;41.89;82.27;;
52872;Laerm;40124;52.198;9.902;2023-04-03T02:00:51;49.85;41.89;67.69;;
52872;Laerm;40124;52.198;9.902;2023-04-03T02:03:16;43.64;40.98;47.91;;
52872;Laerm;40124;52.198;9.902;2023-04-03T02:05:41;61.28;41.82;78.74;;
52872;Laerm;40124;52.198;9.902;2023-04-03T02:08:06;59.16;41.75;80.29;;
52872;Laerm;40124;52.198;9.902;2023-04-03T02:10:31;62.66;42.41;80.19;;
52872;Laerm;40124;52.198;9.902;2023-04-03T02:12:57;57.32;41.61;76.49;;
52872;Laerm;40124;52.198;9.902;2023-04-03T02:15:22;63.14;42.29;81.36;;
52872;Laerm;40124;52.198;9.902;2023-04-03T02:17:48;44.19;42.29;48.70;;
52872;Laerm;40124;52.198;9.902;2023-04-03T02:20:13;43.56;41.06;47.22;;
52872;Laerm;40124;52.198;9.902;2023-04-03T02:22:38;43.50;41.14;45.27;;
52872;Laerm;40124;52.198;9.902;2023-04-03T02:25:03;56.96;41.75;79.03;;
52872;Laerm;40124;52.198;9.902;2023-04-03T02:27:29;57.82;42.29;78.79;;
52872;Laerm;40124;52.198;9.902;2023-04-03T02:29:54;63.24;42.16;79.63;;
52872;Laerm;40124;52.198;9.902;2023-04-03T02:32:19;65.43;42.82;82.58;;
52872;Laerm;40124;52.198;9.902;2023-04-03T02:34:44;44.01;41.96;55.42;;
52872;Laerm;40124;52.198;9.902;2023-04-03T02:37:10;66.01;42.22;89.08;;
52872;Laerm;40124;52.198;9.902;2023-04-03T02:39:35;64.83;42.09;81.46;;
52872;Laerm;40124;52.198;9.902;2023-04-03T02:42:00;64.04;42.29;85.58;;
52872;Laerm;40124;52.198;9.902;2023-04-03T02:44:25;64.84;42.35;83.24;;
52872;Laerm;40124;52.198;9.902;2023-04-03T02:46:51;61.41;42.82;79.45;;
52872;Laerm;40124;52.198;9.902;2023-04-03T02:49:16;64.38;42.82;84.27;;
52872;Laerm;40124;52.198;9.902;2023-04-03T02:51:41;65.62;43.09;82.60;;
52872;Laerm;40124;52.198;9.902;2023-04-03T02:54:06;46.74;42.22;63.21;;
52872;Laerm;40124;52.198;9.902;2023-04-03T02:56:32;64.81;41.14;81.50;;
52872;Laerm;40124;52.198;9.902;2023-04-03T02:58:57;53.83;42.41;73.29;;
52872;Laerm;40124;52.198;9.902;2023-04-03T03:01:22;66.68;43.04;81.44;;
52872;Laerm;40124;52.198;9.902;2023-04-03T03:03:47;66.20;43.04;83.38;;
52872;Laerm;40124;52.198;9.902;2023-04-03T03:06:14;58.10;43.19;77.60;;
52872;Laerm;40124;52.198;9.902;2023-04-03T03:08:39;64.03;42.88;80.71;;
52872;Laerm;40124;52.198;9.902;2023-04-03T03:11:05;66.64;42.79;81.96;;
52872;Laerm;40124;52.198;9.902;2023-04-03T03:13:30;66.92;43.44;84.18;;
52872;Laerm;40124;52.198;9.902;2023-04-03T03:15:56;70.25;43.54;90.42;;
52872;Laerm;40124;52.198;9.902;2023-04-03T03:18:21;67.40;44.11;82.58;;
52872;Laerm;40124;52.198;9.902;2023-04-03T03:20:50;67.01;44.11;81.50;;
52872;Laerm;40124;52.198;9.902;2023-04-03T03:23:15;67.74;44.94;82.04;;
52872;Laerm;40124;52.198;9.902;2023-04-03T03:25:40;68.53;44.35;81.88;;
52872;Laerm;40124;52.198;9.902;2023-04-03T03:28:06;69.73;46.52;81.39;;
52872;Laerm;40124;52.198;9.902;2023-04-03T03:30:31;71.04;48.02;86.12;;
52872;Laerm;40124;52.198;9.902;2023-04-03T03:32:56;72.53;46.07;87.08;;
52872;Laerm;40124;52.198;9.902;2023-04-03T03:35:22;67.51;44.90;81.70;;
52872;Laerm;40124;52.198;9.902;2023-04-03T03:37:47;70.74;45.83;86.33;;
52872;Laerm;40124;52.198;9.902;2023-04-03T03:40:12;70.69;51.30;82.35;;
52872;Laerm;40124;52.198;9.902;2023-04-03T03:42:38;73.54;44.39;90.44;;
52872;Laerm;40124;52.198;9.902;2023-04-03T03:45:03;68.07;45.14;82.86;;
52872;Laerm;40124;52.198;9.902;2023-04-03T03:47:28;71.47;48.21;87.47;;
52872;Laerm;40124;52.198;9.902;2023-04-03T03:49:53;64.92;45.07;80.56;;
52872;Laerm;40124;52.198;9.902;2023-04-03T03:52:18;71.80;44.76;87.76;;
52872;Laerm;40124;52.198;9.902;2023-04-03T03:54:44;71.56;46.02;84.87;;
52872;Laerm;40124;52.198;9.902;2023-04-03T03:57:09;69.15;49.34;81.61;;
52872;Laerm;40124;52.198;9.902;2023-04-03T03:59:35;68.97;48.03;86.35;;
52872;Laerm;40124;52.198;9.902;2023-04-03T04:02:00;71.75;47.91;88.41;;
52872;Laerm;40124;52.198;9.902;2023-04-03T04:04:26;70.17;48.29;87.24;;
52872;Laerm;40124;52.198;9.902;2023-04-03T04:06:51;71.60;47.63;85.35;;
52872;Laerm;40124;52.198;9.902;2023-04-03T04:09:16;71.56;49.12;87.20;;
52872;Laerm;40124;52.198;9.902;2023-04-03T04:11:41;70.01;44.94;87.81;;
52872;Laerm;40124;52.198;9.902;2023-04-03T04:14:07;70.11;49.40;84.35;;
52872;Laerm;40124;52.198;9.902;2023-04-03T04:16:35;71.21;48.66;86.32;;
52872;Laerm;40124;52.198;9.902;2023-04-03T04:19:00;72.11;47.84;88.30;;
52872;Laerm;40124;52.198;9.902;2023-04-03T04:21:25;74.63;47.38;90.46;;
52872;Laerm;40124;52.198;9.902;2023-04-03T04:23:50;68.56;46.30;81.00;;
52872;Laerm;40124;52.198;9.902;2023-04-03T04:26:16;72.64;47.24;90.61;;
52872;Laerm;40124;52.198;9.902;2023-04-03T04:28:41;71.13;47.65;87.81;;
52872;Laerm;40124;52.198;9.902;2023-04-03T04:31:06;72.83;54.83;88.23;;
52872;Laerm;40124;52.198;9.902;2023-04-03T04:33:31;72.27;50.98;86.39;;
52872;Laerm;40124;52.198;9.902;2023-04-03T04:35:56;73.08;51.22;85.77;;
52872;Laerm;40124;52.198;9.902;2023-04-03T04:38:21;73.71;46.62;88.10;;
52872;Laerm;40124;52.198;9.902;2023-04-03T04:40:47;72.92;47.04;85.86;;
52872;Laerm;40124;52.198;9.902;2023-04-03T04:43:12;74.12;48.71;88.88;;
52872;Laerm;40124;52.198;9.902;2023-04-03T04:45:39;72.71;56.24;85.91;;
52872;Laerm;40124;52.198;9.902;2023-04-03T04:48:04;72.18;50.40;87.13;;
52872;Laerm;40124;52.198;9.902;2023-04-03T04:50:30;75.67;52.50;92.54;;
52872;Laerm;40124;52.198;9.902;2023-04-03T04:52:55;69.74;48.51;84.78;;
52872;Laerm;40124;52.198;9.902;2023-04-03T04:55:20;70.37;49.34;82.02;;
52872;Laerm;40124;52.198;9.902;2023-04-03T04:57:45;70.17;47.08;80.67;;
52872;Laerm;40124;52.198;9.902;2023-04-03T05:00:10;74.91;53.47;86.76;;
52872;Laerm;40124;52.198;9.902;2023-04-03T05:02:36;71.76;54.21;93.09;;
52872;Laerm;40124;52.198;9.902;2023-04-03T05:05:01;73.89;54.67;88.00;;
52872;Laerm;40124;52.198;9.902;2023-04-03T05:07:26;71.05;49.59;81.31;;
52872;Laerm;40124;52.198;9.902;2023-04-03T05:09:51;70.89;49.29;80.07;;
52872;Laerm;40124;52.198;9.902;2023-04-03T05:12:17;73.74;54.56;85.10;;
52872;Laerm;40124;52.198;9.902;2023-04-03T05:14:42;70.35;48.58;82.90;;
52872;Laerm;40124;52.198;9.902;2023-04-03T05:17:07;73.04;53.54;87.03;;
52872;Laerm;40124;52.198;9.902;2023-04-03T05:19:32;78.21;57.32;101.78;;
52872;Laerm;40124;52.198;9.902;2023-04-03T05:21:57;70.96;48.51;83.16;;
52872;Laerm;40124;52.198;9.902;2023-04-03T05:24:22;71.28;47.44;85.16;;
52872;Laerm;40124;52.198;9.902;2023-04-03T05:26:48;74.42;53.00;87.28;;
52872;Laerm;40124;52.198;9.902;2023-04-03T05:29:13;71.49;51.89;83.31;;
52872;Laerm;40124;52.198;9.902;2023-04-03T05:31:38;73.22;46.80;84.90;;
52872;Laerm;40124;52.198;9.902;2023-04-03T05:34:03;72.72;46.23;86.88;;
52872;Laerm;40124;52.198;9.902;2023-04-03T05:36:28;72.52;51.28;86.18;;
52872;Laerm;40124;52.198;9.902;2023-04-03T05:38:53;73.67;50.97;83.91;;
52872;Laerm;40124;52.198;9.902;2023-04-03T05:41:21;72.84;51.36;92.96;;
52872;Laerm;40124;52.198;9.902;2023-04-03T05:43:46;71.53;54.59;80.76;;
52872;Laerm;40124;52.198;9.902;2023-04-03T05:46:12;72.53;47.70;84.32;;
52872;Laerm;40124;52.198;9.902;2023-04-03T05:48:37;72.75;49.62;86.67;;
52872;Laerm;40124;52.198;9.902;2023-04-03T05:51:03;69.03;46.57;81.91;;
52872;Laerm;40124;52.198;9.902;2023-04-03T05:53:29;70.97;47.50;83.99;;
52872;Laerm;40124;52.198;9.902;2023-04-03T05:55:56;70.57;49.60;84.50;;
52872;Laerm;40124;52.198;9.902;2023-04-03T05:58:21;73.38;45.66;88.58;;
52872;Laerm;40124;52.198;9.902;2023-04-03T06:00:46;72.87;55.20;84.41;;
52872;Laerm;40124;52.198;9.902;2023-04-03T06:03:12;74.00;47.42;91.38;;
52872;Laerm;40124;52.198;9.902;2023-04-03T06:05:37;69.46;46.30;85.40;;
52872;Laerm;40124;52.198;9.902;2023-04-03T06:08:02;73.96;48.39;87.39;;
52872;Laerm;40124;52.198;9.902;2023-04-03T06:10:28;71.89;48.84;82.54;;
52872;Laerm;40124;52.198;9.902;2023-04-03T06:12:53;70.93;46.59;88.57;;
52872;Laerm;40124;52.198;9.902;2023-04-03T06:15:18;71.82;46.73;85.91;;
52872;Laerm;40124;52.198;9.902;2023-04-03T06:17:43;71.82;51.84;86.36;;
52872;Laerm;40124;52.198;9.902;2023-04-03T06:20:09;69.90;46.05;88.15;;
52872;Laerm;40124;52.198;9.902;2023-04-03T06:22:34;69.93;51.92;81.65;;
52872;Laerm;40124;52.198;9.902;2023-04-03T06:25:00;72.81;47.67;90.13;;
52872;Laerm;40124;52.198;9.902;2023-04-03T06:27:25;69.93;49.00;81.46;;
52872;Laerm;40124;52.198;9.902;2023-04-03T06:29:50;74.36;52.50;89.49;;
52872;Laerm;40124;52.198;9.902;2023-04-03T06:32:16;72.56;47.83;88.14;;
52872;Laerm;40124;52.198;9.902;2023-04-03T06:34:41;70.43;47.40;82.39;;
52872;Laerm;40124;52.198;9.902;2023-04-03T06:37:11;74.00;51.65;89.07;;
52872;Laerm;40124;52.198;9.902;2023-04-03T06:39:39;71.71;50.89;88.18;;
52872;Laerm;40124;52.198;9.902;2023-04-03T06:42:04;72.18;46.55;84.01;;
52872;Laerm;40124;52.198;9.902;2023-04-03T06:44:30;72.51;47.95;86.22;;
52872;Laerm;40124;52.198;9.902;2023-04-03T06:46:55;72.12;48.34;87.47;;
52872;Laerm;40124;52.198;9.902;2023-04-03T06:49:20;73.41;49.83;89.95;;
52872;Laerm;40124;52.198;9.902;2023-04-03T06:51:46;69.80;46.93;85.46;;
52872;Laerm;40124;52.198;9.902;2023-04-03T06:54:11;72.83;48.37;87.26;;
52872;Laerm;40124;52.198;9.902;2023-04-03T06:56:36;71.77;49.56;84.67;;
52872;Laerm;40124;52.198;9.902;2023-04-03T06:59:02;71.73;51.08;86.94;;
52872;Laerm;40124;52.198;9.902;2023-04-03T07:01:27;72.68;50.16;88.70;;
52872;Laerm;40124;52.198;9.902;2023-04-03T07:03:53;71.83;46.69;87.78;;
52872;Laerm;40124;52.198;9.902;2023-04-03T07:06:18;69.25;46.52;85.52;;
52872;Laerm;40124;52.198;9.902;2023-04-03T07:08:44;75.25;49.20;90.97;;
52872;Laerm;40124;52.198;9.902;2023-04-03T07:11:10;71.22;44.97;86.26;;
52872;Laerm;40124;52.198;9.902;2023-04-03T07:13:36;68.51;44.58;80.99;;
52872;Laerm;40124;52.198;9.902;2023-04-03T07:16:01;69.57;45.01;82.82;;
52872;Laerm;40124;52.198;9.902;2023-04-03T07:18:28;72.44;50.84;89.33;;
52872;Laerm;40124;52.198;9.902;2023-04-03T07:20:53;72.44;49.59;87.14;;
52872;Laerm;40124;52.198;9.902;2023-04-03T07:23:18;71.57;48.83;85.81;;
52872;Laerm;40124;52.198;9.902;2023-04-03T07:25:44;70.58;43.72;87.28;;
52872;Laerm;40124;52.198;9.902;2023-04-03T07:28:09;70.18;46.13;84.79;;
52872;Laerm;40124;52.198;9.902;2023-04-03T07:30:35;72.06;49.46;86.82;;
52872;Laerm;40124;52.198;9.902;2023-04-03T07:33:07;69.60;46.69;83.15;;
52872;Laerm;40124;52.198;9.902;2023-04-03T07:35:32;69.70;44.94;81.76;;
52872;Laerm;40124;52.198;9.902;2023-04-03T07:37:57;68.63;48.25;80.45;;
52872;Laerm;40124;52.198;9.902;2023-04-03T07:40:22;72.64;50.41;86.15;;
52872;Laerm;40124;52.198;9.902;2023-04-03T07:42:47;67.14;45.39;79.34;;
52872;Laerm;40124;52.198;9.902;2023-04-03T07:45:13;70.28;47.77;84.18;;
52872;Laerm;40124;52.198;9.902;2023-04-03T07:47:38;69.54;45.77;83.02;;
52872;Laerm;40124;52.198;9.902;2023-04-03T07:50:03;68.75;47.57;82.84;;
52872;Laerm;40124;52.198;9.902;2023-04-03T07:52:28;70.76;45.54;83.21;;
52872;Laerm;40124;52.198;9.902;2023-04-03T07:54:54;69.01;44.23;85.27;;
52872;Laerm;40124;52.198;9.902;2023-04-03T07:57:19;72.40;43.99;92.01;;
52872;Laerm;40124;52.198;9.902;2023-04-03T07:59:44;72.47;48.03;92.21;;
52872;Laerm;40124;52.198;9.902;2023-04-03T08:02:09;67.46;45.11;81.02;;
52872;Laerm;40124;52.198;9.902;2023-04-03T08:04:35;69.69;49.70;82.12;;
52872;Laerm;40124;52.198;9.902;2023-04-03T08:07:00;68.50;49.89;84.16;;
52872;Laerm;40124;52.198;9.902;2023-04-03T08:09:25;68.94;44.65;82.95;;
52872;Laerm;40124;52.198;9.902;2023-04-03T08:11:51;70.70;43.58;86.09;;
52872;Laerm;40124;52.198;9.902;2023-04-03T08:14:18;69.41;47.93;82.77;;
52872;Laerm;40124;52.198;9.902;2023-04-03T08:16:44;72.01;46.15;87.57;;
52872;Laerm;40124;52.198;9.902;2023-04-03T08:19:09;72.92;47.16;86.05;;
52872;Laerm;40124;52.198;9.902;2023-04-03T08:21:35;70.82;45.23;88.71;;
52872;Laerm;40124;52.198;9.902;2023-04-03T08:24:00;70.76;48.28;84.75;;
52872;Laerm;40124;52.198;9.902;2023-04-03T08:26:26;67.34;45.94;81.83;;
52872;Laerm;40124;52.198;9.902;2023-04-03T08:28:52;70.84;47.38;81.17;;
52872;Laerm;40124;52.198;9.902;2023-04-03T08:31:17;70.79;45.57;83.79;;
52872;Laerm;40124;52.198;9.902;2023-04-03T08:33:43;72.30;51.63;88.85;;
52872;Laerm;40124;52.198;9.902;2023-04-03T08:36:16;69.30;50.52;87.41;;
52872;Laerm;40124;52.198;9.902;2023-04-03T08:38:41;68.78;47.12;80.88;;
52872;Laerm;40124;52.198;9.902;2023-04-03T08:41:19;70.83;50.37;87.06;;
52872;Laerm;40124;52.198;9.902;2023-04-03T08:43:52;70.12;43.81;86.65;;
52872;Laerm;40124;52.198;9.902;2023-04-03T08:46:19;68.62;44.69;80.32;;
52872;Laerm;40124;52.198;9.902;2023-04-03T08:48:47;67.67;45.86;79.36;;
52872;Laerm;40124;52.198;9.902;2023-04-03T08:51:15;70.29;46.40;84.53;;
52872;Laerm;40124;52.198;9.902;2023-04-03T08:53:43;67.61;47.12;80.02;;
52872;Laerm;40124;52.198;9.902;2023-04-03T08:56:10;68.94;43.86;85.03;;
52872;Laerm;40124;52.198;9.902;2023-04-03T09:01:06;68.85;50.81;79.37;;
52872;Laerm;40124;52.198;9.902;2023-04-03T09:03:39;69.68;45.75;86.43;;
52872;Laerm;40124;52.198;9.902;2023-04-03T09:11:03;69.26;43.94;87.23;;
52872;Laerm;40124;52.198;9.902;2023-04-03T09:16:02;69.63;47.72;84.06;;
52872;Laerm;40124;52.198;9.902;2023-04-03T09:18:32;70.32;45.89;86.38;;
52872;Laerm;40124;52.198;9.902;2023-04-03T09:21:16;71.25;51.01;85.94;;
52872;Laerm;40124;52.198;9.902;2023-04-03T09:23:44;68.94;47.30;84.89;;
52872;Laerm;40124;52.198;9.902;2023-04-03T09:26:14;70.94;46.13;87.24;;
52872;Laerm;40124;52.198;9.902;2023-04-03T09:28:41;72.31;54.68;88.18;;
52872;Laerm;40124;52.198;9.902;2023-04-03T09:31:18;69.34;47.55;82.59;;
52872;Laerm;40124;52.198;9.902;2023-04-03T09:33:44;70.63;49.59;83.05;;
52872;Laerm;40124;52.198;9.902;2023-04-03T09:36:10;70.54;52.85;84.80;;
52872;Laerm;40124;52.198;9.902;2023-04-03T09:38:36;69.15;48.74;85.84;;
52872;Laerm;40124;52.198;9.902;2023-04-03T09:43:27;70.41;45.14;85.62;;
52872;Laerm;40124;52.198;9.902;2023-04-03T09:48:41;69.11;48.96;80.33;;
52872;Laerm;40124;52.198;9.902;2023-04-03T09:51:14;72.78;48.20;85.10;;
52872;Laerm;40124;52.198;9.902;2023-04-03T09:53:41;71.40;49.71;83.79;;
52872;Laerm;40124;52.198;9.902;2023-04-03T09:58:41;68.49;44.76;85.51;;
52872;Laerm;40124;52.198;9.902;2023-04-03T10:01:10;69.85;45.60;84.66;;
52872;Laerm;40124;52.198;9.902;2023-04-03T10:03:45;72.07;48.23;87.55;;
52872;Laerm;40124;52.198;9.902;2023-04-03T10:06:23;71.56;50.12;90.66;;
52872;Laerm;40124;52.198;9.902;2023-04-03T10:09:03;71.19;48.61;85.93;;
52872;Laerm;40124;52.198;9.902;2023-04-03T10:11:29;69.99;45.30;82.21;;
52872;Laerm;40124;52.198;9.902;2023-04-03T10:13:55;68.51;48.99;80.54;;
52872;Laerm;40124;52.198;9.902;2023-04-03T10:18:58;70.82;47.08;87.34;;
52872;Laerm;40124;52.198;9.902;2023-04-03T10:24:11;72.30;46.18;84.69;;
52872;Laerm;40124;52.198;9.902;2023-04-03T10:26:41;66.53;42.71;79.75;;
52872;Laerm;40124;52.198;9.902;2023-04-03T10:29:21;70.60;48.37;86.13;;
52872;Laerm;40124;52.198;9.902;2023-04-03T10:36:47;68.14;44.31;83.82;;
52872;Laerm;40124;52.198;9.902;2023-04-03T10:39:30;71.76;45.39;85.56;;
52872;Laerm;40124;52.198;9.902;2023-04-03T10:44:29;73.37;45.66;88.73;;
52872;Laerm;40124;52.198;9.902;2023-04-03T10:47:02;69.33;44.58;83.75;;
52872;Laerm;40124;52.198;9.902;2023-04-03T10:49:41;71.58;47.06;83.62;;
52872;Laerm;40124;52.198;9.902;2023-04-03T10:52:24;71.72;43.58;92.89;;
52872;Laerm;40124;52.198;9.902;2023-04-03T10:57:22;69.45;44.31;84.13;;
52872;Laerm;40124;52.198;9.902;2023-04-03T11:00:07;72.10;47.30;84.85;;
52872;Laerm;40124;52.198;9.902;2023-04-03T11:02:39;72.72;47.70;89.02;;
52872;Laerm;40124;52.198;9.902;2023-04-03T11:05:13;69.39;45.80;87.22;;
52872;Laerm;40124;52.198;9.902;2023-04-03T11:07:43;71.58;47.52;84.58;;
52872;Laerm;40124;52.198;9.902;2023-04-03T11:10:15;69.57;44.62;84.45;;
52872;Laerm;40124;52.198;9.902;2023-04-03T11:12:46;71.24;48.61;87.73;;
52872;Laerm;40124;52.198;9.902;2023-04-03T11:15:15;72.17;48.49;84.82;;
52872;Laerm;40124;52.198;9.902;2023-04-03T11:17:41;72.62;49.91;89.62;;
52872;Laerm;40124;52.198;9.902;2023-04-03T11:20:18;71.60;48.21;87.96;;
52872;Laerm;40124;52.198;9.902;2023-04-03T11:22:47;72.84;47.26;89.31;;
52872;Laerm;40124;52.198;9.902;2023-04-03T11:27:41;73.56;50.50;88.09;;
52872;Laerm;40124;52.198;9.902;2023-04-03T11:30:11;69.88;46.20;83.87;;
52872;Laerm;40124;52.198;9.902;2023-04-03T11:35:13;71.94;45.39;84.19;;
52872;Laerm;40124;52.198;9.902;2023-04-03T11:37:44;68.84;44.15;80.61;;
52872;Laerm;40124;52.198;9.902;2023-04-03T11:40:29;73.36;47.06;90.54;;
52872;Laerm;40124;52.198;9.902;2023-04-03T11:50:41;74.06;45.07;87.31;;
52872;Laerm;40124;52.198;9.902;2023-04-03T12:03:29;69.67;45.83;84.10;;
52872;Laerm;40124;52.198;9.902;2023-04-03T12:05:56;75.36;47.16;91.12;;
52872;Laerm;40124;52.198;9.902;2023-04-03T12:08:25;72.37;48.16;84.48;;
52872;Laerm;40124;52.198;9.902;2023-04-03T12:14:22;69.13;45.69;81.67;;
52872;Laerm;40124;52.198;9.902;2023-04-03T12:16:21;71.82;46.08;87.31;;
52872;Laerm;40124;52.198;9.902;2023-04-03T12:24:00;71.58;44.47;87.18;;
52872;Laerm;40124;52.198;9.902;2023-04-03T12:26:32;71.51;47.46;82.88;;
52872;Laerm;40124;52.198;9.902;2023-04-03T12:29:01;73.85;50.02;86.61;;
52872;Laerm;40124;52.198;9.902;2023-04-03T12:31:32;73.75;44.19;89.07;;
52872;Laerm;40124;52.198;9.902;2023-04-03T12:34:21;74.49;57.82;88.09;;
52872;Laerm;40124;52.198;9.902;2023-04-03T12:36:59;69.10;43.34;81.37;;
52872;Laerm;40124;52.198;9.902;2023-04-03T12:39:41;71.29;47.20;86.26;;
52872;Laerm;40124;52.198;9.902;2023-04-03T12:42:17;73.38;50.07;87.51;;
52872;Laerm;40124;52.198;9.902;2023-04-03T12:47:19;72.36;52.34;83.55;;
52872;Laerm;40124;52.198;9.902;2023-04-03T12:49:50;74.28;50.32;91.52;;
52872;Laerm;40124;52.198;9.902;2023-04-03T12:54:43;70.58;47.98;85.77;;
52872;Laerm;40124;52.198;9.902;2023-04-03T12:59:35;72.54;48.08;88.28;;
52872;Laerm;40124;52.198;9.902;2023-04-03T13:02:01;70.84;45.14;81.75;;
52872;Laerm;40124;52.198;9.902;2023-04-03T13:04:27;70.51;49.38;81.64;;
52872;Laerm;40124;52.198;9.902;2023-04-03T13:06:53;71.91;50.69;87.58;;
52872;Laerm;40124;52.198;9.902;2023-04-03T13:09:19;68.88;44.65;79.70;;
52872;Laerm;40124;52.198;9.902;2023-04-03T13:11:46;70.54;47.72;81.36;;
52872;Laerm;40124;52.198;9.902;2023-04-03T13:14:20;71.25;44.47;87.05;;
52872;Laerm;40124;52.198;9.902;2023-04-03T13:16:56;72.36;47.72;87.59;;
52872;Laerm;40124;52.198;9.902;2023-04-03T13:19:22;72.86;51.78;88.04;;
52872;Laerm;40124;52.198;9.902;2023-04-03T13:21:47;70.59;49.29;80.86;;
52872;Laerm;40124;52.198;9.902;2023-04-03T13:24:14;70.56;45.36;79.59;;
52872;Laerm;40124;52.198;9.902;2023-04-03T13:26:40;69.11;48.48;81.18;;
52872;Laerm;40124;52.198;9.902;2023-04-03T13:29:14;69.98;43.63;83.62;;
52872;Laerm;40124;52.198;9.902;2023-04-03T13:31:44;70.48;50.38;82.05;;
52872;Laerm;40124;52.198;9.902;2023-04-03T13:34:13;70.67;49.06;85.34;;
52872;Laerm;40124;52.198;9.902;2023-04-03T13:36:45;70.20;44.80;82.07;;
52872;Laerm;40124;52.198;9.902;2023-04-03T13:41:40;71.52;50.02;83.33;;
52872;Laerm;40124;52.198;9.902;2023-04-03T13:46:47;72.15;50.93;84.60;;
52872;Laerm;40124;52.198;9.902;2023-04-03T13:49:34;71.21;49.12;80.93;;
52872;Laerm;40124;52.198;9.902;2023-04-03T13:52:01;71.27;44.39;84.51;;
52872;Laerm;40124;52.198;9.902;2023-04-03T13:56:56;71.24;47.72;86.71;;
52872;Laerm;40124;52.198;9.902;2023-04-03T14:04:27;70.78;46.95;85.17;;
52872;Laerm;40124;52.198;9.902;2023-04-03T14:06:53;70.13;45.54;80.09;;
52872;Laerm;40124;52.198;9.902;2023-04-03T14:09:19;71.12;46.62;82.53;;
52872;Laerm;40124;52.198;9.902;2023-04-03T14:11:44;69.72;44.69;81.28;;
52872;Laerm;40124;52.198;9.902;2023-04-03T14:14:12;70.08;44.35;79.82;;
52872;Laerm;40124;52.198;9.902;2023-04-03T14:16:39;69.44;45.01;80.80;;
52872;Laerm;40124;52.198;9.902;2023-04-03T14:19:05;72.95;47.52;90.13;;
52872;Laerm;40124;52.198;9.902;2023-04-03T14:21:31;70.36;48.02;81.99;;
52872;Laerm;40124;52.198;9.902;2023-04-03T14:23:57;70.74;47.24;86.12;;
52872;Laerm;40124;52.198;9.902;2023-04-03T14:26:23;70.85;50.87;81.46;;
52872;Laerm;40124;52.198;9.902;2023-04-03T14:28:50;71.05;45.20;82.28;;
52872;Laerm;40124;52.198;9.902;2023-04-03T14:31:15;70.91;52.97;80.75;;
52872;Laerm;40124;52.198;9.902;2023-04-03T14:33:41;69.93;50.66;80.17;;
52872;Laerm;40124;52.198;9.902;2023-04-03T14:38:37;70.58;48.76;84.09;;
52872;Laerm;40124;52.198;9.902;2023-04-03T14:41:03;70.77;49.43;80.29;;
52872;Laerm;40124;52.198;9.902;2023-04-03T14:43:28;69.43;46.05;81.18;;
52872;Laerm;40124;52.198;9.902;2023-04-03T14:45:53;71.55;50.37;82.73;;
52872;Laerm;40124;52.198;9.902;2023-04-03T14:48:20;72.54;47.22;91.04;;
52872;Laerm;40124;52.198;9.902;2023-04-03T14:50:46;69.22;46.62;79.39;;
52872;Laerm;40124;52.198;9.902;2023-04-03T14:53:11;68.95;44.97;81.55;;
52872;Laerm;40124;52.198;9.902;2023-04-03T14:55:37;69.68;45.23;81.66;;
52872;Laerm;40124;52.198;9.902;2023-04-03T14:58:03;70.60;46.76;81.57;;
52872;Laerm;40124;52.198;9.902;2023-04-03T15:00:28;70.95;51.52;80.23;;
52872;Laerm;40124;52.198;9.902;2023-04-03T15:02:53;70.78;47.43;81.89;;
52872;Laerm;40124;52.198;9.902;2023-04-03T15:05:18;70.73;49.14;80.86;;
52872;Laerm;40124;52.198;9.902;2023-04-03T15:07:48;69.33;49.19;78.98;;
52872;Laerm;40124;52.198;9.902;2023-04-03T15:10:16;70.28;45.33;80.78;;
52872;Laerm;40124;52.198;9.902;2023-04-03T15:12:43;73.19;44.47;87.78;;
52872;Laerm;40124;52.198;9.902;2023-04-03T15:15:08;70.66;48.43;79.92;;